Time;durP1;ratioP1;P1;durP2;ratioP2;P2;SDS_P1;SDS_P2;PMS_P1;PMS_P2;Temp;Humidity;BMP_temperature;BMP_pressure;BME280_temperature;BME280_humidity;BME280_pressure;Samples;Min_cycle;Max_cycle;Signal;HPM_P1;HPM_P2
2022/09/29 00:00:49;;;;;;;0.50;0.50;;;;;;;18.13;70.76;98154.81;5070438;28;20591;-62
2022/09/29 00:03:16;;;;;;;0.70;0.70;;;;;;;18.11;71.43;98149.00;5070310;28;20229;-62
2022/09/29 00:05:48;;;;;;;0.40;0.40;;;;;;;18.07;71.38;98145.19;5070515;28;20203;-61
2022/09/29 00:08:16;;;;;;;0.70;0.67;;;;;;;18.04;71.71;98146.34;5070360;28;20733;-61
2022/09/29 00:10:43;;;;;;;1.47;1.00;;;;;;;18.06;73.00;98149.56;5070353;28;20232;-62
2022/09/29 00:13:09;;;;;;;0.50;0.50;;;;;;;18.31;70.57;98147.44;5069963;28;20604;-61
2022/09/29 00:15:36;;;;;;;0.43;0.43;;;;;;;18.19;71.86;98142.94;5070118;28;20209;-61
2022/09/29 00:18:05;;;;;;;0.90;0.80;;;;;;;18.01;73.35;98140.75;5070031;28;20221;-61
2022/09/29 00:20:32;;;;;;;0.50;0.50;;;;;;;17.93;72.96;98146.00;5070169;28;20205;-62
2022/09/29 00:22:59;;;;;;;0.60;0.60;;;;;;;17.78;73.98;98148.63;5069865;28;20226;-61
2022/09/29 00:25:26;;;;;;;0.33;0.33;;;;;;;17.59;75.41;98149.91;5069466;28;20225;-61
2022/09/29 00:27:53;;;;;;;0.50;0.50;;;;;;;17.61;75.55;98145.38;5069997;28;20226;-62
2022/09/29 00:30:20;;;;;;;1.53;0.90;;;;;;;17.58;75.64;98145.75;5069936;28;20693;-62
2022/09/29 00:32:47;;;;;;;1.20;0.77;;;;;;;17.63;76.38;98143.44;5069647;28;20241;-61
2022/09/29 00:35:16;;;;;;;0.60;0.57;;;;;;;17.56;76.65;98137.34;5070022;28;20229;-62
2022/09/29 00:37:43;;;;;;;1.10;0.80;;;;;;;17.51;77.19;98150.00;5069584;28;20313;-61
2022/09/29 00:40:11;;;;;;;0.40;0.40;;;;;;;17.48;76.95;98135.66;5069927;28;20247;-62
2022/09/29 00:42:38;;;;;;;1.03;0.87;;;;;;;17.45;77.11;98135.22;5069832;28;20221;-61
2022/09/29 00:45:15;;;;;;;0.57;0.57;;;;;;;17.37;77.79;98139.50;5069736;28;20199;-61
2022/09/29 00:47:46;;;;;;;0.43;0.43;;;;;;;17.29;78.07;98141.38;5069565;28;20222;-62
2022/09/29 00:50:19;;;;;;;1.50;0.53;;;;;;;17.29;79.16;98136.19;5069528;28;20599;-62
2022/09/29 00:52:52;;;;;;;1.20;0.70;;;;;;;17.24;79.45;98139.28;5069331;28;20568;-61
2022/09/29 00:55:23;;;;;;;2.23;0.60;;;;;;;17.23;79.51;98142.88;5069579;28;20607;-61
2022/09/29 00:57:56;;;;;;;0.77;0.77;;;;;;;17.17;79.80;98133.25;5069685;28;20269;-62
2022/09/29 01:00:23;;;;;;;0.60;0.47;;;;;;;17.12;79.09;98135.53;5069852;28;20701;-62
2022/09/29 01:02:53;;;;;;;1.00;0.90;;;;;;;17.02;79.35;98138.38;5069769;28;20228;-61
2022/09/29 01:05:26;;;;;;;0.50;0.50;;;;;;;16.93;79.04;98137.66;5069572;28;20601;-62
2022/09/29 01:07:53;;;;;;;0.60;0.57;;;;;;;16.92;79.40;98136.03;5069699;28;20227;-62
2022/09/29 01:10:20;;;;;;;0.70;0.70;;;;;;;17.00;79.30;98136.94;5069423;28;20599;-61
2022/09/29 01:12:48;;;;;;;0.57;0.57;;;;;;;17.01;78.26;98134.19;5069335;28;20231;-61
2022/09/29 01:15:19;;;;;;;0.50;0.50;;;;;;;16.94;79.19;98141.84;5069316;28;20211;-61
2022/09/29 01:17:47;;;;;;;0.50;0.50;;;;;;;16.88;80.36;98144.31;5069354;28;21016;-61
2022/09/29 01:20:19;;;;;;;0.40;0.40;;;;;;;16.82;80.36;98145.81;5069495;28;20214;-61
2022/09/29 01:23:25;;;;;;;0.63;0.63;;;;;;;16.73;80.82;98141.66;5069289;28;20221;-61
2022/09/29 01:26:27;;;;;;;1.40;0.93;;;;;;;16.70;81.08;98144.59;5069279;28;20260;-62
2022/09/29 01:29:41;;;;;;;0.77;0.50;;;;;;;16.65;81.61;98141.72;5045092;28;20223;-61
2022/09/29 01:32:15;;;;;;;1.03;0.80;;;;;;;16.68;81.29;98144.75;5054624;28;20255;-61
2022/09/29 01:34:51;;;;;;;0.70;0.70;;;;;;;16.64;81.97;98145.25;5069738;28;20194;-61
2022/09/29 01:37:38;;;;;;;0.80;0.50;;;;;;;16.67;81.68;98134.63;5073018;28;20195;-61
2022/09/29 01:40:14;;;;;;;0.53;0.53;;;;;;;16.54;81.43;98137.75;5073332;28;20236;-61
2022/09/29 01:42:49;;;;;;;1.33;0.60;;;;;;;16.56;81.73;98140.97;5073115;28;20253;-61
2022/09/29 01:45:22;;;;;;;0.60;0.60;;;;;;;16.37;82.05;98136.25;5073125;28;20203;-61
2022/09/29 01:47:55;;;;;;;0.60;0.60;;;;;;;16.39;82.65;98137.69;5072813;28;20224;-61
2022/09/29 01:50:26;;;;;;;0.80;0.80;;;;;;;16.31;82.32;98132.59;5072968;28;20194;-61
2022/09/29 01:53:00;;;;;;;0.50;0.50;;;;;;;16.29;82.59;98130.19;5072959;28;20234;-61
2022/09/29 01:55:31;;;;;;;0.80;0.80;;;;;;;16.32;82.28;98128.22;5072704;28;20210;-61
2022/09/29 01:58:02;;;;;;;0.70;0.70;;;;;;;16.25;82.70;98117.78;5072669;28;20237;-61
2022/09/29 02:00:35;;;;;;;0.57;0.57;;;;;;;16.16;83.50;98123.97;5072737;28;20207;-61
2022/09/29 02:03:09;;;;;;;0.87;0.77;;;;;;;16.23;83.57;98124.88;5072630;28;20218;-61
2022/09/29 02:05:41;;;;;;;0.70;0.70;;;;;;;16.32;83.27;98131.63;5072697;28;20215;-61
2022/09/29 02:08:13;;;;;;;1.00;0.90;;;;;;;16.27;83.86;98133.91;5072706;28;20253;-61
2022/09/29 02:10:47;;;;;;;1.17;0.63;;;;;;;16.30;83.97;98130.97;5072720;28;20214;-61
2022/09/29 02:13:16;;;;;;;0.50;0.50;;;;;;;16.30;84.29;98130.97;5072441;28;20726;-61
2022/09/29 02:15:48;;;;;;;0.50;0.50;;;;;;;16.27;83.83;98134.72;5072579;28;20210;-61
2022/09/29 02:18:21;;;;;;;1.37;0.80;;;;;;;16.23;83.81;98141.19;5072746;28;20229;-61
2022/09/29 02:20:49;;;;;;;0.80;0.80;;;;;;;16.19;83.85;98131.38;5072424;28;20282;-61
2022/09/29 02:23:16;;;;;;;1.20;0.80;;;;;;;16.20;83.38;98141.53;5072574;28;20217;-61
2022/09/29 02:25:46;;;;;;;1.20;1.00;;;;;;;16.15;84.21;98138.66;5072533;28;20207;-61
2022/09/29 02:28:13;;;;;;;0.70;0.70;;;;;;;16.17;83.88;98141.03;5072479;28;20219;-61
2022/09/29 02:30:40;;;;;;;0.83;0.77;;;;;;;16.12;83.65;98146.72;5072199;28;20202;-61
2022/09/29 02:33:20;;;;;;;0.70;0.60;;;;;;;16.04;83.70;98154.50;5072018;28;20250;-61
2022/09/29 02:35:56;;;;;;;1.07;0.80;;;;;;;16.02;83.73;98146.13;5072155;28;20210;-61
2022/09/29 02:38:30;;;;;;;0.73;0.73;;;;;;;16.01;84.41;98150.47;5072243;28;20228;-61
2022/09/29 02:41:07;;;;;;;5.27;0.93;;;;;;;15.93;84.27;98150.50;5072365;28;20196;-61
2022/09/29 02:43:47;;;;;;;1.23;1.03;;;;;;;15.91;84.20;98155.06;5072306;28;20210;-61
2022/09/29 02:46:29;;;;;;;1.07;0.67;;;;;;;15.91;84.00;98167.09;5071413;28;20729;-61
2022/09/29 02:49:15;;;;;;;0.57;0.57;;;;;;;15.90;83.97;98163.72;5072294;28;20226;-61
2022/09/29 02:51:47;;;;;;;2.30;1.03;;;;;;;15.89;84.17;98172.44;5071721;28;20601;-61
2022/09/29 02:54:26;;;;;;;0.80;0.67;;;;;;;15.89;84.11;98171.66;5071735;28;20233;-61
2022/09/29 02:57:04;;;;;;;0.80;0.80;;;;;;;15.86;84.27;98162.47;5071652;28;20703;-61
2022/09/29 02:59:40;;;;;;;0.53;0.53;;;;;;;15.84;84.51;98162.63;5071906;28;20223;-61
2022/09/29 03:02:06;;;;;;;0.63;0.57;;;;;;;15.82;84.89;98148.28;5071793;28;20200;-61
2022/09/29 03:04:35;;;;;;;0.40;0.40;;;;;;;15.83;84.82;98155.06;5071775;28;20602;-61
2022/09/29 03:07:02;;;;;;;0.50;0.50;;;;;;;15.85;84.27;98150.53;5071535;28;20199;-61
2022/09/29 03:09:28;;;;;;;0.30;0.30;;;;;;;15.84;84.84;98151.53;5071664;28;20222;-61
2022/09/29 03:11:55;;;;;;;0.60;0.53;;;;;;;15.82;84.42;98158.59;5071649;28;20195;-61
2022/09/29 03:14:22;;;;;;;0.60;0.60;;;;;;;15.82;84.68;98158.59;5071378;28;20215;-61
2022/09/29 03:16:49;;;;;;;0.70;0.70;;;;;;;15.81;84.14;98151.84;5071377;28;20199;-61
2022/09/29 03:19:16;;;;;;;0.93;0.90;;;;;;;15.78;84.63;98158.16;5071225;28;20222;-61
2022/09/29 03:21:44;;;;;;;0.60;0.60;;;;;;;15.74;84.95;98145.78;5071267;28;20659;-61
2022/09/29 03:24:11;;;;;;;0.63;0.57;;;;;;;15.76;85.29;98146.38;5071617;28;20609;-61
2022/09/29 03:26:37;;;;;;;0.90;0.73;;;;;;;15.73;85.45;98146.72;5071080;28;20206;-61
2022/09/29 03:29:05;;;;;;;1.20;1.10;;;;;;;15.68;85.65;98138.69;5071283;28;20579;-61
2022/09/29 03:31:32;;;;;;;1.07;0.83;;;;;;;15.68;85.33;98136.94;5071053;28;20207;-61
2022/09/29 03:33:58;;;;;;;0.70;0.70;;;;;;;15.73;84.77;98142.38;5071090;28;20261;-61
2022/09/29 03:36:26;;;;;;;0.40;0.40;;;;;;;15.76;85.78;98148.97;5070876;28;20967;-61
2022/09/29 03:38:54;;;;;;;0.70;0.67;;;;;;;15.68;86.18;98147.25;5071400;28;20223;-61
2022/09/29 03:41:21;;;;;;;0.40;0.40;;;;;;;15.59;86.17;98149.00;5070856;28;20203;-61
2022/09/29 03:43:48;;;;;;;1.87;0.80;;;;;;;15.62;85.72;98142.72;5071180;28;20236;-61
2022/09/29 03:46:15;;;;;;;0.70;0.70;;;;;;;15.73;85.75;98150.09;5070770;28;20226;-61
2022/09/29 03:48:41;;;;;;;1.77;0.70;;;;;;;15.88;86.10;98152.78;5070862;28;20229;-61
2022/09/29 03:51:09;;;;;;;0.53;0.53;;;;;;;15.80;86.96;98150.25;5070507;28;20201;-62
2022/09/29 03:53:36;;;;;;;1.17;0.80;;;;;;;15.71;87.66;98156.41;5070429;28;20510;-61
2022/09/29 03:56:05;;;;;;;0.50;0.50;;;;;;;15.66;87.14;98153.50;5070519;28;20592;-61
2022/09/29 03:58:32;;;;;;;0.60;0.60;;;;;;;15.67;87.83;98152.50;5070601;28;20299;-61
2022/09/29 04:00:59;;;;;;;1.27;1.00;;;;;;;15.66;88.04;98148.34;5070500;28;20724;-61
2022/09/29 04:03:26;;;;;;;0.30;0.30;;;;;;;15.64;87.51;98156.22;5070714;28;20238;-61
2022/09/29 04:05:52;;;;;;;0.77;0.63;;;;;;;15.68;87.60;98154.16;5070442;28;20203;-61
2022/09/29 04:08:19;;;;;;;0.77;0.60;;;;;;;15.68;87.73;98164.44;5070329;28;20741;-61
2022/09/29 04:10:47;;;;;;;0.80;0.60;;;;;;;15.61;88.61;98162.50;5070334;28;20202;-61
2022/09/29 04:13:15;;;;;;;0.60;0.60;;;;;;;15.63;88.15;98155.44;5070205;28;20245;-61
2022/09/29 04:15:42;;;;;;;0.80;0.60;;;;;;;15.66;88.54;98148.34;5070477;28;20607;-61
2022/09/29 04:18:09;;;;;;;0.63;0.63;;;;;;;15.63;88.77;98150.28;5070583;28;20223;-61
2022/09/29 04:20:38;;;;;;;1.40;0.90;;;;;;;15.62;88.75;98164.13;5070151;28;20256;-61
2022/09/29 04:23:05;;;;;;;0.77;0.70;;;;;;;15.61;88.83;98167.66;5070268;28;20253;-61
2022/09/29 04:25:32;;;;;;;1.23;0.60;;;;;;;15.68;88.95;98172.19;5070076;28;20289;-61
2022/09/29 04:27:59;;;;;;;0.63;0.63;;;;;;;15.72;88.19;98174.28;5069805;28;20224;-61
2022/09/29 04:30:27;;;;;;;1.43;0.60;;;;;;;15.70;88.79;98175.41;5069925;28;20713;-61
2022/09/29 04:32:54;;;;;;;0.73;0.60;;;;;;;15.65;89.12;98182.78;5069800;28;20704;-61
2022/09/29 04:35:20;;;;;;;0.50;0.50;;;;;;;15.70;88.79;98180.56;5070173;28;20484;-61
2022/09/29 04:37:47;;;;;;;0.60;0.60;;;;;;;15.68;88.47;98174.75;5069898;28;20231;-61
2022/09/29 04:40:14;;;;;;;1.47;1.20;;;;;;;15.76;88.22;98174.75;5069750;28;20573;-61
2022/09/29 04:42:41;;;;;;;0.60;0.60;;;;;;;15.79;88.18;98174.41;5069567;28;20315;-61
2022/09/29 04:45:08;;;;;;;0.80;0.80;;;;;;;15.86;88.37;98184.88;5069864;28;20209;-61
2022/09/29 04:47:36;;;;;;;0.50;0.50;;;;;;;15.84;88.90;98190.97;5069542;28;20214;-61
2022/09/29 04:50:03;;;;;;;1.03;0.83;;;;;;;15.88;89.17;98191.44;5069836;28;20200;-61
2022/09/29 04:52:30;;;;;;;1.53;0.60;;;;;;;15.96;88.97;98194.00;5069341;28;20725;-61
2022/09/29 04:54:57;;;;;;;0.83;0.83;;;;;;;15.94;89.35;98200.28;5069811;28;20203;-61
2022/09/29 04:57:24;;;;;;;1.53;0.77;;;;;;;15.97;88.64;98203.34;5069318;28;20201;-61
2022/09/29 04:59:51;;;;;;;0.70;0.70;;;;;;;16.01;88.88;98204.63;5069692;28;20713;-61
2022/09/29 05:02:18;;;;;;;0.50;0.50;;;;;;;16.10;88.52;98196.84;5069302;28;20207;-61
2022/09/29 05:04:47;;;;;;;0.97;0.70;;;;;;;16.21;88.06;98204.22;5069612;28;20202;-61
2022/09/29 05:07:14;;;;;;;0.70;0.70;;;;;;;16.28;87.89;98202.56;5069428;28;20666;-61
2022/09/29 05:09:41;;;;;;;0.50;0.50;;;;;;;16.40;88.06;98184.94;5069010;28;20205;-61
2022/09/29 05:12:08;;;;;;;1.80;1.07;;;;;;;16.45;87.26;98186.03;5069348;28;20294;-61
2022/09/29 05:14:35;;;;;;;0.63;0.63;;;;;;;16.65;87.64;98190.75;5069429;28;20230;-61
2022/09/29 05:17:02;;;;;;;2.23;0.77;;;;;;;16.72;87.49;98192.47;5069364;28;20205;-61
2022/09/29 05:19:28;;;;;;;0.93;0.80;;;;;;;16.89;87.51;98192.38;5069147;28;20226;-61
2022/09/29 05:21:57;;;;;;;0.73;0.63;;;;;;;17.14;88.62;98198.16;5069172;28;20223;-61
2022/09/29 05:24:24;;;;;;;0.73;0.73;;;;;;;17.37;87.82;98191.19;5069155;28;20218;-61
2022/09/29 05:26:51;;;;;;;1.00;0.90;;;;;;;17.67;87.38;98191.19;5069191;28;20671;-61
2022/09/29 05:29:17;;;;;;;1.10;1.00;;;;;;;17.93;84.26;98190.78;5069120;28;20224;-61
2022/09/29 05:31:44;;;;;;;0.70;0.70;;;;;;;18.23;85.74;98191.53;5069165;28;20201;-61
2022/09/29 05:34:11;;;;;;;2.20;1.07;;;;;;;18.52;83.03;98190.63;5069146;28;20233;-61
2022/09/29 05:36:38;;;;;;;0.67;0.67;;;;;;;18.86;79.54;98193.59;5069112;28;20212;-61
2022/09/29 05:39:07;;;;;;;0.70;0.70;;;;;;;19.17;80.09;98188.88;5069128;28;20225;-61
2022/09/29 05:41:34;;;;;;;0.70;0.70;;;;;;;19.54;78.44;98189.50;5069005;28;20218;-61
2022/09/29 05:44:01;;;;;;;0.50;0.50;;;;;;;19.79;77.28;98191.69;5068987;28;20314;-61
2022/09/29 05:46:28;;;;;;;0.93;0.67;;;;;;;19.96;75.58;98189.59;5069207;28;20280;-62
2022/09/29 05:48:57;;;;;;;0.67;0.67;;;;;;;20.20;76.95;98177.91;5069148;28;20219;-62
2022/09/29 05:51:26;;;;;;;0.50;0.50;;;;;;;20.40;73.24;98175.34;5068855;28;20255;-62
2022/09/29 05:53:53;;;;;;;0.80;0.77;;;;;;;20.70;71.29;98168.84;5068996;28;20326;-63
2022/09/29 05:56:23;;;;;;;0.77;0.53;;;;;;;21.06;73.84;98174.66;5069007;28;20210;-62
2022/09/29 05:58:50;;;;;;;0.50;0.50;;;;;;;21.33;69.58;98176.25;5068744;28;20230;-62
2022/09/29 06:01:19;;;;;;;0.50;0.50;;;;;;;21.60;71.19;98177.00;5068822;28;20205;-63
2022/09/29 06:03:46;;;;;;;1.20;1.10;;;;;;;21.97;70.38;98176.50;5068699;28;20237;-63
2022/09/29 06:06:15;;;;;;;1.40;1.20;;;;;;;22.32;65.91;98182.97;5069019;28;20213;-63
2022/09/29 06:08:42;;;;;;;0.67;0.63;;;;;;;22.41;63.98;98185.34;5068645;28;20223;-62
2022/09/29 06:11:11;;;;;;;1.73;0.70;;;;;;;22.47;64.49;98189.72;5068751;28;20213;-62
2022/09/29 06:13:40;;;;;;;0.88;0.85;;;;;;;22.68;64.46;98191.97;5068625;28;20238;-63
2022/09/29 06:16:08;;;;;;;0.80;0.80;;;;;;;22.92;65.84;98197.41;5068838;28;20705;-63
2022/09/29 06:18:35;;;;;;;1.10;1.00;;;;;;;23.02;63.71;98197.78;5068619;28;20226;-63
2022/09/29 06:21:03;;;;;;;1.35;0.75;;;;;;;23.21;64.68;98196.84;5068817;28;20213;-63
2022/09/29 06:23:29;;;;;;;0.95;0.85;;;;;;;23.48;63.04;98196.59;5071494;28;20222;-63
2022/09/29 06:25:57;;;;;;;0.73;0.73;;;;;;;23.75;61.42;98206.78;5072291;28;20203;-63
2022/09/29 06:28:24;;;;;;;1.00;0.80;;;;;;;24.03;58.05;98207.06;5072264;28;20214;-63
2022/09/29 06:30:52;;;;;;;0.95;0.80;;;;;;;24.29;58.94;98215.56;5072278;28;20195;-63
2022/09/29 06:33:20;;;;;;;1.00;0.90;;;;;;;24.57;58.56;98205.38;5072095;28;20241;-63
2022/09/29 06:38:32;;;;;;;0.80;0.80;;;;;;;24.98;51.66;98216.84;5072539;28;20226;-64
2022/09/29 06:41:00;;;;;;;0.80;0.50;;;;;;;25.20;56.74;98204.06;5072051;28;20199;-63
2022/09/29 06:43:27;;;;;;;0.85;0.85;;;;;;;25.36;50.68;98207.00;5072084;28;20608;-64
2022/09/29 06:45:55;;;;;;;1.02;0.80;;;;;;;25.42;51.94;98212.13;5072063;28;20198;-64
2022/09/29 06:48:22;;;;;;;0.65;0.65;;;;;;;25.71;50.39;98210.41;5071859;28;20314;-64
2022/09/29 06:50:49;;;;;;;0.47;0.47;;;;;;;26.09;49.82;98216.13;5071795;28;20209;-64
2022/09/29 06:53:15;;;;;;;0.70;0.70;;;;;;;26.02;48.75;98221.53;5071613;28;20340;-64
2022/09/29 06:55:42;;;;;;;0.85;0.70;;;;;;;26.10;48.88;98217.75;5071732;28;20218;-64
2022/09/29 06:58:09;;;;;;;1.92;0.70;;;;;;;26.11;52.29;98221.94;5072007;28;20241;-64
2022/09/29 07:00:38;;;;;;;0.70;0.70;;;;;;;26.24;50.67;98219.06;5071746;28;20203;-64
2022/09/29 07:03:06;;;;;;;0.70;0.70;;;;;;;26.46;50.08;98221.03;5071666;28;20222;-64
2022/09/29 07:05:34;;;;;;;0.80;0.75;;;;;;;26.60;49.10;98222.38;5071737;28;20210;-64
2022/09/29 07:08:02;;;;;;;0.90;0.90;;;;;;;26.88;52.77;98218.91;5071851;28;20257;-64
2022/09/29 07:10:29;;;;;;;0.85;0.85;;;;;;;27.24;52.00;98222.13;5071819;28;20234;-63
2022/09/29 07:12:56;;;;;;;0.80;0.80;;;;;;;27.26;47.95;98223.47;5071478;28;20218;-64
2022/09/29 07:15:30;;;;;;;0.70;0.70;;;;;;;27.38;49.03;98227.84;5071424;28;20231;-64
2022/09/29 07:17:57;;;;;;;1.00;0.82;;;;;;;27.37;47.14;98228.84;5071192;28;20785;-64
2022/09/29 07:20:25;;;;;;;1.08;0.98;;;;;;;27.47;47.50;98221.91;5071398;28;20207;-64
2022/09/29 07:22:53;;;;;;;0.70;0.70;;;;;;;27.69;47.42;98219.34;5071126;28;20219;-64
2022/09/29 07:25:20;;;;;;;0.82;0.80;;;;;;;27.84;45.46;98228.44;5071861;28;20226;-64
2022/09/29 07:27:48;;;;;;;0.73;0.73;;;;;;;27.99;44.94;98228.66;5071030;28;20226;-64
2022/09/29 07:30:15;;;;;;;1.10;1.00;;;;;;;27.99;47.16;98239.97;5071209;28;20202;-64
2022/09/29 07:32:42;;;;;;;1.15;0.90;;;;;;;27.84;44.78;98237.16;5070597;28;20427;-64
2022/09/29 07:35:09;;;;;;;0.70;0.70;;;;;;;27.91;46.20;98239.59;5071344;28;20225;-64
2022/09/29 07:37:37;;;;;;;0.98;0.73;;;;;;;28.20;46.07;98235.72;5071035;28;20706;-64
2022/09/29 07:40:05;;;;;;;0.70;0.68;;;;;;;28.29;45.87;98232.66;5071048;28;20417;-64
2022/09/29 07:42:32;;;;;;;2.15;0.93;;;;;;;28.20;43.58;98240.97;5070794;28;20228;-64
2022/09/29 07:44:59;;;;;;;1.02;0.85;;;;;;;28.45;44.15;98247.59;5071007;28;20210;-64
2022/09/29 07:47:26;;;;;;;0.80;0.80;;;;;;;28.59;43.84;98243.50;5070499;28;20202;-63
2022/09/29 07:49:53;;;;;;;0.95;0.82;;;;;;;28.44;42.62;98251.25;5071224;28;20598;-64
2022/09/29 07:52:19;;;;;;;0.80;0.80;;;;;;;28.32;43.02;98245.31;5070304;28;20217;-64
2022/09/29 07:54:47;;;;;;;1.08;0.70;;;;;;;28.49;43.62;98247.91;5070587;28;20234;-64
2022/09/29 07:57:14;;;;;;;0.70;0.70;;;;;;;28.53;41.31;98246.34;5070232;28;20194;-64
2022/09/29 07:59:41;;;;;;;1.00;0.82;;;;;;;28.24;40.81;98241.28;5070702;28;20650;-64
2022/09/29 08:02:09;;;;;;;0.73;0.73;;;;;;;28.38;46.08;98249.59;5070349;28;20195;-64
2022/09/29 08:04:36;;;;;;;0.70;0.70;;;;;;;28.76;43.45;98255.78;5070537;28;20206;-64
2022/09/29 08:07:02;;;;;;;0.90;0.77;;;;;;;29.24;43.35;98254.09;5070728;28;20207;-64
2022/09/29 08:09:29;;;;;;;0.80;0.80;;;;;;;29.46;41.50;98257.41;5070527;28;20603;-63
2022/09/29 08:11:57;;;;;;;0.70;0.70;;;;;;;29.43;41.42;98257.13;5070315;28;20198;-64
2022/09/29 08:14:24;;;;;;;0.90;0.85;;;;;;;29.05;42.28;98254.47;5070103;28;20230;-64
2022/09/29 08:16:51;;;;;;;0.80;0.80;;;;;;;28.70;41.49;98251.50;5070101;28;20682;-64
2022/09/29 08:19:18;;;;;;;0.70;0.70;;;;;;;28.70;43.85;98254.16;5070099;28;20219;-65
2022/09/29 08:21:48;;;;;;;1.15;1.00;;;;;;;28.46;43.72;98254.44;5070312;28;20199;-64
2022/09/29 08:24:17;;;;;;;0.80;0.80;;;;;;;28.75;45.23;98257.63;5070208;28;20222;-64
2022/09/29 08:26:44;;;;;;;1.55;0.90;;;;;;;28.19;43.25;98249.91;5069892;28;20736;-66
2022/09/29 08:29:13;;;;;;;1.48;1.02;;;;;;;28.35;42.31;98247.44;5069914;28;20231;-65
2022/09/29 08:31:42;;;;;;;0.80;0.80;;;;;;;28.84;44.65;98256.13;5069879;28;20206;-65
2022/09/29 08:34:09;;;;;;;1.70;0.98;;;;;;;28.98;43.18;98251.25;5070118;28;20321;-65
2022/09/29 08:36:36;;;;;;;3.17;2.35;;;;;;;29.28;42.77;98244.66;5069962;28;20591;-65
2022/09/29 08:39:03;;;;;;;3.30;1.90;;;;;;;29.08;41.00;98240.81;5069815;28;20280;-65
2022/09/29 08:41:39;;;;;;;4.90;3.17;;;;;;;28.92;40.16;98235.66;5069779;28;20210;-65
2022/09/29 08:44:14;;;;;;;2.70;1.88;;;;;;;29.15;42.63;98245.88;5069535;28;20219;-65
2022/09/29 08:46:46;;;;;;;1.65;1.55;;;;;;;28.93;40.61;98232.78;5069302;28;20206;-65
2022/09/29 08:49:20;;;;;;;1.90;1.00;;;;;;;29.24;40.29;98235.69;5069777;28;20218;-65
2022/09/29 08:51:50;;;;;;;2.03;1.50;;;;;;;29.05;42.22;98240.53;5069498;28;20206;-65
2022/09/29 08:54:26;;;;;;;3.58;1.42;;;;;;;28.84;42.08;98252.69;5069556;28;20260;-65
2022/09/29 08:56:52;;;;;;;1.80;1.30;;;;;;;28.86;44.05;98253.25;5069510;28;20207;-65
2022/09/29 08:59:19;;;;;;;2.22;1.80;;;;;;;28.84;41.61;98250.06;5069566;28;20223;-65
2022/09/29 09:02:03;;;;;;;2.83;2.13;;;;;;;29.07;45.25;98239.22;5069276;28;20663;-65
2022/09/29 09:04:50;;;;;;;4.00;1.67;;;;;;;29.32;43.85;98240.44;5069288;28;20304;-65
2022/09/29 09:07:25;;;;;;;1.67;1.40;;;;;;;28.88;47.80;98251.13;5067760;28;20660;-65
2022/09/29 09:10:03;;;;;;;1.70;1.25;;;;;;;28.64;48.28;98256.72;5069600;28;20727;-65
2022/09/29 09:12:50;;;;;;;1.50;1.40;;;;;;;28.48;48.17;98254.19;5069396;28;20725;-65
2022/09/29 09:15:33;;;;;;;2.70;1.73;;;;;;;28.28;49.00;98258.16;5069325;28;20237;-65
2022/09/29 09:18:21;;;;;;;1.83;1.40;;;;;;;28.29;49.43;98264.22;5069269;28;20214;-65
2022/09/29 09:20:56;;;;;;;4.05;2.67;;;;;;;28.05;47.75;98267.09;5069760;28;20260;-65
2022/09/29 09:23:32;;;;;;;1.23;1.10;;;;;;;27.94;48.72;98271.41;5068989;28;20316;-65
2022/09/29 09:26:01;;;;;;;1.70;1.10;;;;;;;27.73;49.45;98272.97;5069426;28;20225;-66
2022/09/29 09:28:33;;;;;;;1.50;1.08;;;;;;;27.67;50.27;98279.19;5068998;28;20218;-64
2022/09/29 09:31:06;;;;;;;2.92;1.15;;;;;;;27.62;50.89;98286.19;5069410;28;20202;-65
2022/09/29 09:33:39;;;;;;;2.03;1.35;;;;;;;27.66;49.28;98285.44;5069036;28;20218;-65
2022/09/29 09:36:13;;;;;;;1.00;0.90;;;;;;;27.63;49.37;98293.03;5069096;28;20207;-64
2022/09/29 09:38:46;;;;;;;1.52;1.38;;;;;;;27.63;49.90;98293.81;5069108;28;20222;-65
2022/09/29 09:41:17;;;;;;;1.60;1.20;;;;;;;27.52;49.91;98297.34;5069659;28;20191;-65
2022/09/29 09:43:48;;;;;;;4.38;1.80;;;;;;;27.66;48.86;98284.66;5069115;28;20218;-65
2022/09/29 09:46:20;;;;;;;2.75;1.55;;;;;;;27.89;49.96;98286.31;5069089;28;20210;-65
2022/09/29 09:48:58;;;;;;;1.40;1.20;;;;;;;27.98;47.34;98290.13;5069252;28;20702;-65
2022/09/29 09:51:44;;;;;;;1.67;1.20;;;;;;;27.79;47.69;98291.47;5069040;28;20248;-65
2022/09/29 09:54:14;;;;;;;1.58;1.10;;;;;;;27.42;49.68;98294.56;5068618;28;20230;-65
2022/09/29 09:56:59;;;;;;;1.85;1.27;;;;;;;27.48;50.10;98285.72;5070767;28;20203;-65
2022/09/29 09:59:39;;;;;;;1.35;1.00;;;;;;;27.52;50.33;98292.09;5072786;28;20229;-65
2022/09/29 10:02:16;;;;;;;1.08;0.98;;;;;;;27.42;50.13;98284.06;5072953;28;20689;-65
2022/09/29 10:04:44;;;;;;;1.98;1.23;;;;;;;27.37;50.31;98283.97;5073136;28;20206;-65
2022/09/29 10:07:11;;;;;;;1.15;0.90;;;;;;;27.40;50.36;98278.25;5072794;28;20195;-65
2022/09/29 10:09:38;;;;;;;1.20;1.10;;;;;;;27.31;51.46;98285.72;5072665;28;20686;-65
2022/09/29 10:12:05;;;;;;;1.08;0.90;;;;;;;27.28;49.36;98289.63;5072902;28;20232;-65
2022/09/29 10:14:34;;;;;;;1.35;1.00;;;;;;;27.62;51.43;98289.59;5072402;28;20234;-65
2022/09/29 10:17:06;;;;;;;1.80;1.27;;;;;;;28.19;50.32;98294.59;5072425;28;20221;-65
2022/09/29 10:19:56;;;;;;;1.42;1.25;;;;;;;28.69;48.99;98292.03;5072431;28;20229;-65
2022/09/29 10:22:23;;;;;;;1.10;1.00;;;;;;;29.09;46.36;98291.63;5062797;28;20202;-65
2022/09/29 10:24:55;;;;;;;1.17;1.08;;;;;;;29.44;46.04;98280.56;5072975;28;20199;-65
2022/09/29 10:27:25;;;;;;;2.05;0.90;;;;;;;29.84;46.61;98287.16;5072456;28;20257;-65
2022/09/29 10:29:53;;;;;;;1.00;0.90;;;;;;;30.15;42.30;98285.44;5072414;28;20203;-66
2022/09/29 10:32:35;;;;;;;2.20;1.00;;;;;;;30.41;43.24;98289.00;5072185;28;20271;-66
2022/09/29 10:35:10;;;;;;;1.00;0.90;;;;;;;30.63;43.70;98280.06;5072290;28;20714;-65
2022/09/29 10:37:39;;;;;;;0.88;0.88;;;;;;;30.76;41.18;98284.84;5072272;28;20231;-65
2022/09/29 10:40:19;;;;;;;1.20;1.10;;;;;;;31.01;41.09;98286.75;5072484;28;20664;-65
2022/09/29 10:42:49;;;;;;;1.00;0.90;;;;;;;31.26;40.81;98278.03;5071791;28;20268;-65
2022/09/29 10:45:18;;;;;;;1.73;1.27;;;;;;;31.46;39.64;98279.09;5072398;28;20238;-65
2022/09/29 10:47:46;;;;;;;2.55;1.00;;;;;;;31.68;37.41;98274.31;5071759;28;20222;-65
2022/09/29 10:50:17;;;;;;;1.15;1.00;;;;;;;31.70;36.67;98277.44;5071997;28;20687;-65
2022/09/29 10:52:47;;;;;;;0.95;0.80;;;;;;;31.47;38.73;98272.75;5071692;28;20237;-66
2022/09/29 10:55:18;;;;;;;1.83;1.00;;;;;;;31.60;36.43;98282.00;5071998;28;20620;-66
2022/09/29 10:57:46;;;;;;;0.68;0.68;;;;;;;31.30;35.14;98276.47;5071770;28;20222;-67
2022/09/29 11:00:26;;;;;;;0.65;0.65;;;;;;;31.39;35.84;98275.94;5072220;28;20203;-66
2022/09/29 11:02:58;;;;;;;1.00;0.93;;;;;;;30.98;36.09;98265.34;5071632;28;20240;-66
2022/09/29 11:05:27;;;;;;;1.10;1.00;;;;;;;31.18;36.95;98270.63;5071593;28;20592;-66
2022/09/29 11:07:54;;;;;;;1.50;1.00;;;;;;;31.38;35.69;98263.78;5070962;28;20230;-66
2022/09/29 11:10:32;;;;;;;1.00;0.90;;;;;;;31.62;35.90;98264.81;5071633;28;20198;-66
2022/09/29 11:12:59;;;;;;;0.70;0.70;;;;;;;31.78;35.72;98271.63;5071373;28;20215;-66
2022/09/29 11:15:28;;;;;;;1.30;1.00;;;;;;;31.65;35.44;98261.63;5071484;28;20825;-66
2022/09/29 11:17:56;;;;;;;0.95;0.90;;;;;;;31.62;36.47;98262.16;5071625;28;20219;-66
2022/09/29 11:20:32;;;;;;;1.40;0.90;;;;;;;31.68;37.32;98258.44;5071569;28;20198;-66
2022/09/29 11:23:23;;;;;;;0.80;0.80;;;;;;;31.66;37.45;98255.28;5071147;28;20279;-66
2022/09/29 11:26:17;;;;;;;0.80;0.80;;;;;;;31.27;36.48;98247.94;5071555;28;20201;-66
2022/09/29 11:28:59;;;;;;;1.80;1.17;;;;;;;31.13;37.02;98263.53;5071366;28;20238;-58
2022/09/29 11:31:50;;;;;;;0.88;0.88;;;;;;;31.10;37.80;98265.91;5071118;28;20861;-58
2022/09/29 11:34:43;;;;;;;1.05;0.80;;;;;;;30.75;37.77;98279.81;5071076;28;20707;-58
2022/09/29 11:37:22;;;;;;;0.95;0.90;;;;;;;30.47;38.77;98273.97;5068312;28;20489;-58
2022/09/29 11:39:58;;;;;;;0.70;0.70;;;;;;;30.53;38.44;98280.06;5071049;28;20199;-58
2022/09/29 11:42:44;;;;;;;1.10;1.00;;;;;;;30.66;40.62;98279.53;5070978;28;20584;-58
2022/09/29 11:45:17;;;;;;;1.17;0.93;;;;;;;30.55;40.87;98283.25;5071243;28;20222;-66
2022/09/29 11:48:04;;;;;;;0.65;0.65;;;;;;;30.48;39.13;98285.31;5070846;28;20218;-66
2022/09/29 11:50:47;;;;;;;0.98;0.98;;;;;;;30.25;39.67;98291.84;5069066;28;20194;-66
2022/09/29 11:53:27;;;;;;;1.02;0.93;;;;;;;30.41;39.00;98283.72;5070822;28;20610;-66